createdAt,value
2023-05-06T00:02:04.589Z,9.90
2023-05-06T00:04:32.647Z,9.90
2023-05-06T00:07:00.421Z,9.90
2023-05-06T00:09:28.189Z,9.90
2023-05-06T00:11:56.268Z,9.90
2023-05-06T00:14:24.055Z,9.90
2023-05-06T00:16:51.787Z,9.90
2023-05-06T00:19:19.574Z,10.00
2023-05-06T00:21:47.319Z,9.90
2023-05-06T00:24:15.054Z,9.90
2023-05-06T00:26:42.750Z,9.90
2023-05-06T00:29:10.408Z,9.90
2023-05-06T00:31:38.265Z,9.90
2023-05-06T00:34:05.982Z,10.00
2023-05-06T00:36:34.268Z,9.90
2023-05-06T00:39:01.922Z,9.90
2023-05-06T00:41:34.191Z,9.90
2023-05-06T00:44:01.929Z,9.90
2023-05-06T00:46:30.104Z,9.90
2023-05-06T00:48:58.192Z,9.90
2023-05-06T00:51:27.565Z,9.90
2023-05-06T00:53:55.764Z,9.90
2023-05-06T00:56:23.983Z,9.90
2023-05-06T00:58:52.015Z,9.90
2023-05-06T01:01:22.935Z,9.90
2023-05-06T01:03:55.386Z,10.00
2023-05-06T01:07:20.150Z,10.00
2023-05-06T01:10:02.484Z,10.10
2023-05-06T01:13:13.621Z,10.10
2023-05-06T01:15:55.977Z,10.00
2023-05-06T01:18:31.696Z,10.00
2023-05-06T01:21:02.035Z,10.00
2023-05-06T01:23:29.857Z,10.10
2023-05-06T01:25:57.597Z,10.10
2023-05-06T01:28:25.226Z,10.10
2023-05-06T01:31:06.962Z,10.30
2023-05-06T01:34:28.126Z,10.30
2023-05-06T01:37:21.445Z,10.30
2023-05-06T01:39:56.040Z,10.20
2023-05-06T01:42:29.181Z,10.10
2023-05-06T01:45:02.090Z,10.00
2023-05-06T01:47:30.267Z,9.90
2023-05-06T01:49:59.628Z,9.70
2023-05-06T01:52:27.949Z,9.70
2023-05-06T01:54:55.647Z,9.60
2023-05-06T01:57:23.472Z,9.60
2023-05-06T01:59:52.006Z,9.50
2023-05-06T02:02:19.748Z,9.40
2023-05-06T02:04:47.646Z,9.30
2023-05-06T02:07:15.714Z,9.30
2023-05-06T02:09:46.083Z,9.30
2023-05-06T02:12:13.757Z,9.40
2023-05-06T02:14:42.033Z,9.30
2023-05-06T02:17:09.792Z,9.30
2023-05-06T02:19:37.438Z,9.20
2023-05-06T02:22:05.085Z,9.20
2023-05-06T02:24:32.910Z,9.10
2023-05-06T02:27:02.343Z,9.20
2023-05-06T02:29:30.479Z,9.00
2023-05-06T02:31:58.187Z,9.00
2023-05-06T02:34:26.116Z,9.00
2023-05-06T02:36:54.001Z,8.90
2023-05-06T02:39:23.104Z,8.80
2023-05-06T02:41:50.739Z,8.70
2023-05-06T02:44:19.243Z,8.70
2023-05-06T02:46:46.984Z,8.80
2023-05-06T02:49:14.697Z,8.80
2023-05-06T02:51:42.428Z,8.70
2023-05-06T02:54:10.089Z,8.80
2023-05-06T02:56:37.791Z,8.80
2023-05-06T02:59:06.308Z,8.80
2023-05-06T03:01:34.024Z,8.80
2023-05-06T03:04:01.763Z,8.70
2023-05-06T03:06:29.537Z,8.70
2023-05-06T03:08:57.889Z,8.70
2023-05-06T03:11:25.769Z,8.60
2023-05-06T03:13:53.589Z,8.60
2023-05-06T03:16:21.500Z,8.60
2023-05-06T03:18:53.201Z,8.60
2023-05-06T03:21:21.244Z,8.60
2023-05-06T03:23:50.752Z,8.50
2023-05-06T03:26:21.628Z,8.40
2023-05-06T03:28:50.260Z,8.40
2023-05-06T03:31:21.080Z,8.40
2023-05-06T03:33:49.406Z,8.50
2023-05-06T03:36:18.284Z,8.50
2023-05-06T03:38:48.692Z,8.50
2023-05-06T03:41:18.403Z,8.60
2023-05-06T03:43:46.852Z,8.50
2023-05-06T03:46:17.001Z,8.50
2023-05-06T03:48:45.147Z,8.60
2023-05-06T03:51:16.629Z,9.00
2023-05-06T03:53:45.154Z,9.10
2023-05-06T03:56:13.390Z,9.10
2023-05-06T03:58:41.345Z,9.00
2023-05-06T04:01:11.824Z,8.80
2023-05-06T04:03:39.879Z,8.80
2023-05-06T04:06:08.239Z,8.70
2023-05-06T04:08:36.038Z,8.70
2023-05-06T04:11:08.955Z,8.70
2023-05-06T04:13:38.423Z,8.70
2023-05-06T04:16:12.942Z,8.70
2023-05-06T04:18:46.279Z,8.80
2023-05-06T04:21:16.762Z,8.80
2023-05-06T04:23:49.441Z,8.90
2023-05-06T04:26:22.190Z,9.00
2023-05-06T04:28:50.288Z,9.10
2023-05-06T04:31:19.108Z,9.10
2023-05-06T04:33:50.653Z,9.10
2023-05-06T04:36:24.010Z,9.10
2023-05-06T04:39:11.486Z,9.10
2023-05-06T04:41:40.926Z,9.30
2023-05-06T04:44:10.446Z,9.30
2023-05-06T04:46:38.285Z,9.40
2023-05-06T04:49:06.675Z,9.40
2023-05-06T04:51:35.550Z,9.40
2023-05-06T04:54:04.170Z,9.50
2023-05-06T04:56:32.153Z,9.50
2023-05-06T04:59:00.083Z,9.70
2023-05-06T05:01:28.789Z,9.70
2023-05-06T05:03:57.874Z,9.80
2023-05-06T05:06:25.764Z,10.00
2023-05-06T05:08:55.438Z,10.30
2023-05-06T05:11:25.300Z,10.50
2023-05-06T05:13:55.380Z,10.50
2023-05-06T05:16:24.810Z,10.50
2023-05-06T05:18:54.144Z,10.60
2023-05-06T05:21:27.959Z,10.80
2023-05-06T05:23:57.336Z,10.90
2023-05-06T05:26:25.034Z,11.00
2023-05-06T05:28:54.734Z,11.00
2023-05-06T05:31:24.405Z,11.00
2023-05-06T05:33:52.561Z,11.00
2023-05-06T05:36:23.870Z,11.00
2023-05-06T05:38:55.505Z,11.20
2023-05-06T05:41:27.001Z,11.20
2023-05-06T05:43:55.940Z,11.40
2023-05-06T05:46:24.469Z,11.60
2023-05-06T05:48:52.786Z,11.70
2023-05-06T05:51:23.464Z,11.90
2023-05-06T05:53:52.457Z,12.70
2023-05-06T05:56:22.089Z,13.30
2023-05-06T05:58:50.377Z,13.90
2023-05-06T06:01:18.525Z,14.40
2023-05-06T06:03:48.091Z,14.60
2023-05-06T06:06:16.028Z,15.20
2023-05-06T06:08:44.262Z,16.40
2023-05-06T06:11:13.712Z,17.30
2023-05-06T06:13:42.764Z,17.70
2023-05-06T06:16:11.871Z,18.10
2023-05-06T06:18:39.642Z,18.10
2023-05-06T06:21:07.958Z,18.10
2023-05-06T06:23:36.561Z,18.10
2023-05-06T06:26:04.800Z,18.80
2023-05-06T06:28:34.091Z,18.60
2023-05-06T06:31:02.091Z,19.10
2023-05-06T06:33:29.748Z,20.00
2023-05-06T06:35:58.764Z,20.60
2023-05-06T06:38:26.641Z,20.20
2023-05-06T06:40:56.010Z,20.70
2023-05-06T06:43:24.860Z,21.00
2023-05-06T06:46:15.905Z,21.10
2023-05-06T06:48:43.644Z,20.70
2023-05-06T06:51:11.195Z,21.20
2023-05-06T06:53:38.804Z,21.20
2023-05-06T06:56:13.197Z,21.40
2023-05-06T06:58:40.963Z,21.20
2023-05-06T07:01:08.900Z,21.50
2023-05-06T07:03:37.032Z,21.20
2023-05-06T07:06:04.843Z,21.40
2023-05-06T07:08:32.501Z,21.50
2023-05-06T07:11:00.178Z,22.20
2023-05-06T07:13:27.800Z,22.30
2023-05-06T07:15:55.481Z,22.50
2023-05-06T07:18:23.150Z,22.20
2023-05-06T07:20:50.894Z,22.50
2023-05-06T07:23:19.499Z,23.00
2023-05-06T07:25:47.155Z,22.80
2023-05-06T07:28:15.808Z,22.30
2023-05-06T07:30:43.770Z,23.30
2023-05-06T07:33:11.484Z,22.40
2023-05-06T07:35:39.938Z,22.80
2023-05-06T07:38:07.648Z,22.40
2023-05-06T07:40:35.971Z,22.80
2023-05-06T07:43:04.333Z,23.40
2023-05-06T07:45:31.953Z,24.40
2023-05-06T07:47:59.627Z,22.50
2023-05-06T07:50:27.235Z,22.80
2023-05-06T07:52:54.771Z,23.20
2023-05-06T07:55:22.334Z,23.50
2023-05-06T07:57:50.711Z,23.80
2023-05-06T08:00:19.088Z,23.20
2023-05-06T08:02:48.244Z,23.20
2023-05-06T08:05:17.341Z,22.70
2023-05-06T08:07:45.134Z,22.80
2023-05-06T08:10:12.761Z,23.40
2023-05-06T08:12:40.373Z,23.90
2023-05-06T08:15:10.025Z,23.90
2023-05-06T08:17:38.193Z,24.20
2023-05-06T08:20:08.340Z,25.00
2023-05-06T08:22:35.984Z,24.10
2023-05-06T08:25:04.014Z,24.60
2023-05-06T08:27:31.880Z,24.30
2023-05-06T08:29:59.515Z,24.40
2023-05-06T08:32:27.174Z,24.00
2023-05-06T08:34:54.833Z,24.60
2023-05-06T08:37:22.391Z,24.70
2023-05-06T08:39:50.036Z,24.60
2023-05-06T08:42:18.388Z,24.40
2023-05-06T08:44:47.866Z,24.40
2023-05-06T08:47:16.169Z,25.40
2023-05-06T08:49:43.750Z,25.50
2023-05-06T08:52:12.775Z,23.30
2023-05-06T08:54:42.817Z,23.10
2023-05-06T08:57:14.283Z,23.20
2023-05-06T08:59:43.118Z,23.30
2023-05-06T09:02:11.644Z,24.00
2023-05-06T09:04:40.482Z,22.40
2023-05-06T09:07:09.111Z,22.00
2023-05-06T09:09:36.837Z,23.50
2023-05-06T09:12:09.782Z,23.40
2023-05-06T09:14:37.554Z,24.00
2023-05-06T09:17:05.721Z,24.80
2023-05-06T09:19:38.732Z,24.40
2023-05-06T09:22:06.849Z,23.90
2023-05-06T09:24:34.787Z,24.20
2023-05-06T09:27:03.331Z,25.30
2023-05-06T09:29:30.994Z,25.70
2023-05-06T09:32:04.486Z,25.10
2023-05-06T09:34:32.114Z,24.80
2023-05-06T09:36:59.706Z,24.90
2023-05-06T09:39:27.924Z,25.30
2023-05-06T09:41:55.795Z,24.40
2023-05-06T09:44:24.627Z,24.30
2023-05-06T09:46:52.564Z,24.00
2023-05-06T09:49:20.885Z,24.20
2023-05-06T09:51:51.761Z,23.50
2023-05-06T09:54:20.367Z,22.90
2023-05-06T09:56:50.779Z,22.90
2023-05-06T09:59:21.213Z,22.70
2023-05-06T10:01:51.857Z,22.60
2023-05-06T10:04:26.682Z,22.40
2023-05-06T10:07:03.406Z,21.80
2023-05-06T10:09:32.114Z,22.20
2023-05-06T10:12:02.341Z,22.50
2023-05-06T10:14:30.151Z,22.60
2023-05-06T10:16:59.732Z,22.10
2023-05-06T10:19:30.726Z,21.80
2023-05-06T10:22:41.810Z,20.70
2023-05-06T10:25:43.948Z,20.90
2023-05-06T10:28:27.911Z,21.20
2023-05-06T10:31:00.856Z,21.20
2023-05-06T10:33:30.521Z,21.30
2023-05-06T10:36:24.054Z,21.10
2023-05-06T10:39:02.894Z,20.90
2023-05-06T10:41:37.244Z,21.00
2023-05-06T10:44:06.195Z,21.40
2023-05-06T10:47:00.643Z,21.70
2023-05-06T10:49:29.256Z,22.20
2023-05-06T10:52:17.071Z,22.60
2023-05-06T10:54:51.882Z,22.70
2023-05-06T10:57:27.349Z,22.80
2023-05-06T10:59:56.111Z,22.50
2023-05-06T11:02:24.310Z,21.90
2023-05-06T11:05:02.001Z,21.90
2023-05-06T11:07:29.820Z,21.00
2023-05-06T11:10:07.025Z,20.90
2023-05-06T11:12:55.969Z,20.90
2023-05-06T11:15:41.393Z,21.30
2023-05-06T11:18:37.153Z,21.10
2023-05-06T11:21:31.155Z,21.60
2023-05-06T11:23:58.825Z,21.90
2023-05-06T11:26:26.430Z,22.40
2023-05-06T11:28:54.875Z,22.20
2023-05-06T11:31:23.418Z,22.30
2023-05-06T11:33:54.473Z,21.80
2023-05-06T11:36:22.999Z,22.20
2023-05-06T11:38:53.162Z,22.50
2023-05-06T11:41:23.740Z,22.70
2023-05-06T11:43:54.014Z,22.70
2023-05-06T11:46:25.473Z,22.60
2023-05-06T11:48:53.136Z,22.80
2023-05-06T11:51:24.750Z,22.70
2023-05-06T11:54:22.744Z,23.10
2023-05-06T11:56:56.381Z,22.10
2023-05-06T11:59:40.437Z,21.10
2023-05-06T12:02:13.684Z,20.90
2023-05-06T12:04:50.262Z,21.30
2023-05-06T12:07:18.153Z,21.90
2023-05-06T12:09:51.608Z,22.50
2023-05-06T12:12:24.197Z,22.70
2023-05-06T12:14:55.545Z,22.70
2023-05-06T12:17:24.158Z,22.70
2023-05-06T12:19:52.413Z,22.70
2023-05-06T12:22:27.351Z,22.30
2023-05-06T12:24:54.965Z,22.60
2023-05-06T12:27:34.587Z,22.80
2023-05-06T12:30:04.689Z,23.00
2023-05-06T12:32:32.878Z,23.40
2023-05-06T12:35:05.854Z,23.10
2023-05-06T12:37:33.662Z,23.20
2023-05-06T12:40:01.626Z,23.40
2023-05-06T12:42:29.549Z,23.90
2023-05-06T12:44:57.338Z,23.60
2023-05-06T12:47:26.734Z,23.40
2023-05-06T12:49:59.404Z,23.40
2023-05-06T12:52:30.777Z,23.30
2023-05-06T12:55:01.891Z,23.10
2023-05-06T12:57:29.493Z,22.90
2023-05-06T12:59:57.383Z,22.90
2023-05-06T13:02:25.014Z,23.10
2023-05-06T13:04:52.807Z,23.20
2023-05-06T13:07:20.674Z,22.80
2023-05-06T13:09:48.324Z,23.20
2023-05-06T13:12:15.996Z,23.10
2023-05-06T13:14:44.293Z,22.80
2023-05-06T13:17:12.036Z,22.90
2023-05-06T13:19:40.006Z,23.20
2023-05-06T13:22:07.607Z,23.10
2023-05-06T13:24:35.260Z,23.50
2023-05-06T13:27:03.294Z,24.00
2023-05-06T13:29:31.977Z,23.10
2023-05-06T13:32:00.788Z,22.90
2023-05-06T13:34:28.387Z,22.90
2023-05-06T13:36:56.896Z,23.00
2023-05-06T13:39:26.094Z,22.70
2023-05-06T13:41:54.320Z,22.40
2023-05-06T13:44:22.726Z,23.30
2023-05-06T13:46:50.579Z,23.40
2023-05-06T13:49:20.359Z,23.60
2023-05-06T13:51:48.672Z,23.50
2023-05-06T13:54:21.188Z,23.50
2023-05-06T13:56:53.163Z,23.90
2023-05-06T13:59:20.849Z,23.70
2023-05-06T14:01:50.171Z,24.20
2023-05-06T14:04:17.847Z,24.10
2023-05-06T14:06:45.474Z,23.90
2023-05-06T14:09:13.207Z,23.50
2023-05-06T14:11:40.876Z,23.80
2023-05-06T14:14:08.457Z,23.70
2023-05-06T14:16:36.108Z,23.80
2023-05-06T14:19:04.782Z,24.20
2023-05-06T14:21:33.754Z,24.00
2023-05-06T14:24:01.578Z,24.00
2023-05-06T14:26:29.301Z,23.00
2023-05-06T14:28:56.841Z,22.00
2023-05-06T14:31:24.505Z,21.70
2023-05-06T14:33:52.180Z,22.20
2023-05-06T14:36:20.784Z,22.80
2023-05-06T14:38:48.417Z,23.00
2023-05-06T14:41:15.999Z,23.00
2023-05-06T14:43:43.655Z,22.40
2023-05-06T14:46:11.428Z,22.00
2023-05-06T14:48:39.668Z,21.60
2023-05-06T14:51:07.248Z,21.50
2023-05-06T14:53:34.922Z,21.50
2023-05-06T14:56:05.836Z,21.40
2023-05-06T14:58:37.776Z,22.00
2023-05-06T15:01:09.657Z,22.50
2023-05-06T15:03:41.362Z,22.30
2023-05-06T15:06:12.551Z,22.40
2023-05-06T15:08:45.966Z,21.80
2023-05-06T15:11:17.154Z,21.80
2023-05-06T15:13:48.530Z,22.00
2023-05-06T15:16:19.064Z,22.50
2023-05-06T15:18:47.427Z,21.90
2023-05-06T15:21:15.924Z,21.30
2023-05-06T15:23:47.891Z,21.10
2023-05-06T15:26:16.010Z,21.10
2023-05-06T15:28:43.555Z,21.30
2023-05-06T15:31:11.255Z,21.30
2023-05-06T15:33:41.906Z,21.40
2023-05-06T15:36:10.353Z,21.60
2023-05-06T15:39:00.873Z,21.90
2023-05-06T15:41:35.352Z,21.80
2023-05-06T15:44:06.109Z,21.70
2023-05-06T15:46:34.408Z,21.20
2023-05-06T15:49:31.959Z,20.70
2023-05-06T15:51:50.049Z,20.30
2023-05-06T15:54:20.312Z,19.90
2023-05-06T15:56:47.988Z,19.80
2023-05-06T15:59:15.780Z,19.30
2023-05-06T16:02:24.430Z,18.10
2023-05-06T16:04:31.711Z,17.40
2023-05-06T16:06:59.660Z,17.00
2023-05-06T16:09:27.933Z,16.70
2023-05-06T16:11:55.782Z,16.60
2023-05-06T16:14:23.420Z,16.60
2023-05-06T16:16:51.751Z,16.50
2023-05-06T16:19:19.912Z,16.30
2023-05-06T16:21:48.469Z,16.20
2023-05-06T16:24:16.255Z,16.30
2023-05-06T16:26:43.818Z,16.40
2023-05-06T16:29:11.656Z,16.30
2023-05-06T16:31:39.494Z,16.30
2023-05-06T16:34:07.146Z,16.30
2023-05-06T16:36:34.733Z,16.20
2023-05-06T16:39:02.373Z,16.00
2023-05-06T16:41:30.039Z,15.90
2023-05-06T16:43:57.787Z,15.90
2023-05-06T16:46:26.400Z,15.80
2023-05-06T16:48:54.593Z,15.80
2023-05-06T16:51:22.808Z,15.80
2023-05-06T16:53:51.074Z,15.90
2023-05-06T16:56:18.592Z,16.00
2023-05-06T16:58:46.241Z,16.10
2023-05-06T17:01:13.849Z,16.00
2023-05-06T17:03:41.497Z,15.90
2023-05-06T17:06:09.074Z,15.90
2023-05-06T17:08:37.204Z,15.90
2023-05-06T17:11:07.382Z,15.90
2023-05-06T17:13:35.649Z,15.90
2023-05-06T17:16:03.187Z,15.90
2023-05-06T17:18:30.843Z,16.00
2023-05-06T17:20:58.893Z,15.90
2023-05-06T17:23:26.586Z,15.80
2023-05-06T17:25:57.473Z,15.80
2023-05-06T17:28:25.120Z,15.70
2023-05-06T17:30:52.754Z,15.80
2023-05-06T17:33:21.989Z,15.80
2023-05-06T17:35:49.700Z,15.90
2023-05-06T17:38:17.308Z,16.20
2023-05-06T17:40:45.482Z,16.10
2023-05-06T17:43:13.027Z,16.00
2023-05-06T17:45:41.823Z,16.10
2023-05-06T17:48:09.443Z,16.20
2023-05-06T17:50:37.187Z,16.20
2023-05-06T17:53:04.803Z,16.20
2023-05-06T17:55:32.400Z,16.20
2023-05-06T17:58:00.007Z,16.20
2023-05-06T18:00:27.539Z,16.10
2023-05-06T18:02:56.398Z,16.10
2023-05-06T18:05:25.901Z,16.00
2023-05-06T18:07:53.784Z,16.00
2023-05-06T18:10:21.599Z,15.90
2023-05-06T18:12:50.007Z,15.90
2023-05-06T18:15:17.667Z,15.90
2023-05-06T18:17:46.227Z,15.90
2023-05-06T18:20:14.262Z,15.80
2023-05-06T18:22:43.033Z,15.80
2023-05-06T18:25:11.312Z,15.80
2023-05-06T18:27:39.116Z,15.90
2023-05-06T18:30:08.094Z,16.20
2023-05-06T18:32:36.071Z,16.30
2023-05-06T18:35:03.947Z,16.40
2023-05-06T18:37:31.489Z,16.40
2023-05-06T18:39:59.081Z,16.30
2023-05-06T18:42:30.477Z,16.10
2023-05-06T18:44:58.108Z,16.10
2023-05-06T18:47:25.961Z,16.00
2023-05-06T18:49:53.755Z,16.10
2023-05-06T18:52:22.293Z,16.00
2023-05-06T18:54:50.348Z,16.00
2023-05-06T18:57:19.658Z,15.90
2023-05-06T18:59:47.330Z,15.90
2023-05-06T19:02:15.050Z,15.80
2023-05-06T19:04:43.545Z,15.90
2023-05-06T19:07:12.438Z,15.80
2023-05-06T19:09:43.590Z,15.80
2023-05-06T19:12:11.625Z,15.70
2023-05-06T19:14:39.140Z,15.80
2023-05-06T19:17:06.897Z,15.80
2023-05-06T19:19:34.550Z,15.70
2023-05-06T19:22:02.378Z,15.60
2023-05-06T19:24:31.289Z,15.60
2023-05-06T19:26:59.230Z,15.60
2023-05-06T19:29:26.820Z,15.50
2023-05-06T19:31:54.812Z,15.60
2023-05-06T19:34:22.439Z,15.70
2023-05-06T19:36:50.024Z,15.70
2023-05-06T19:39:17.623Z,15.70
2023-05-06T19:41:45.435Z,15.60
2023-05-06T19:44:13.221Z,15.60
2023-05-06T19:46:40.994Z,15.50
2023-05-06T19:49:08.654Z,15.40
2023-05-06T19:51:36.252Z,15.30
2023-05-06T19:54:04.056Z,15.30
2023-05-06T19:56:31.680Z,15.40
2023-05-06T19:58:59.920Z,15.50
2023-05-06T20:01:27.563Z,15.40
2023-05-06T20:03:55.820Z,15.40
2023-05-06T20:06:23.551Z,15.40
2023-05-06T20:08:51.096Z,15.40
2023-05-06T20:11:18.738Z,15.40
2023-05-06T20:13:46.536Z,15.40
2023-05-06T20:16:14.126Z,15.30
2023-05-06T20:18:42.903Z,15.40
2023-05-06T20:21:10.605Z,15.40
2023-05-06T20:23:38.263Z,15.40
2023-05-06T20:26:06.455Z,15.30
2023-05-06T20:28:37.766Z,15.30
2023-05-06T20:31:07.276Z,15.20
2023-05-06T20:33:34.980Z,15.30
2023-05-06T20:36:04.056Z,15.20
2023-05-06T20:38:31.729Z,15.10
2023-05-06T20:41:01.728Z,15.00
2023-05-06T20:43:30.573Z,14.90
2023-05-06T20:45:58.166Z,14.90
2023-05-06T20:48:27.845Z,14.80
2023-05-06T20:50:57.211Z,14.70
2023-05-06T20:53:26.878Z,14.70
2023-05-06T20:55:54.623Z,14.60
2023-05-06T20:58:22.354Z,14.40
2023-05-06T21:00:50.622Z,14.40
2023-05-06T21:03:18.410Z,14.40
2023-05-06T21:05:46.187Z,14.40
2023-05-06T21:08:13.919Z,14.40
2023-05-06T21:10:41.661Z,14.30
2023-05-06T21:13:09.353Z,14.30
2023-05-06T21:15:38.251Z,14.30
2023-05-06T21:18:06.189Z,14.40
2023-05-06T21:20:34.838Z,14.60
2023-05-06T21:23:03.602Z,14.60
2023-05-06T21:25:31.394Z,14.80
2023-05-06T21:28:03.277Z,14.90
2023-05-06T21:30:31.266Z,14.90
2023-05-06T21:32:58.968Z,14.90
2023-05-06T21:35:27.529Z,14.90
2023-05-06T21:37:55.117Z,14.70
2023-05-06T21:40:22.938Z,14.70
2023-05-06T21:42:53.120Z,14.70
2023-05-06T21:45:21.841Z,14.70
2023-05-06T21:47:49.822Z,14.80
2023-05-06T21:50:17.661Z,14.80
2023-05-06T21:52:45.964Z,14.90
2023-05-06T21:55:13.861Z,14.80
2023-05-06T21:57:41.572Z,14.70
2023-05-06T22:00:12.145Z,14.70
2023-05-06T22:02:41.449Z,14.60
2023-05-06T22:05:10.586Z,14.60
2023-05-06T22:07:38.561Z,14.50
2023-05-06T22:10:07.340Z,14.50
2023-05-06T22:12:36.651Z,14.40
2023-05-06T22:15:05.402Z,14.40
2023-05-06T22:17:34.767Z,14.40
2023-05-06T22:20:02.605Z,14.30
2023-05-06T22:22:30.769Z,14.30
2023-05-06T22:24:58.484Z,14.30
2023-05-06T22:27:26.069Z,14.20
2023-05-06T22:29:53.749Z,14.20
2023-05-06T22:32:21.936Z,14.20
2023-05-06T22:34:49.613Z,14.20
2023-05-06T22:37:17.243Z,14.10
2023-05-06T22:39:45.026Z,14.00
2023-05-06T22:42:12.653Z,13.90
2023-05-06T22:44:40.413Z,13.90
2023-05-06T22:47:08.006Z,13.90
2023-05-06T22:49:36.526Z,13.90
2023-05-06T22:52:05.714Z,13.80
2023-05-06T22:54:33.655Z,13.90
2023-05-06T22:57:02.047Z,13.90
2023-05-06T22:59:30.276Z,13.90
2023-05-06T23:01:57.932Z,13.90
2023-05-06T23:04:25.551Z,14.00
2023-05-06T23:06:53.244Z,14.00
2023-05-06T23:09:21.169Z,14.00
2023-05-06T23:11:48.909Z,14.10
2023-05-06T23:14:17.462Z,14.10
2023-05-06T23:16:45.103Z,14.20
2023-05-06T23:19:12.989Z,14.30
2023-05-06T23:21:44.136Z,14.20
2023-05-06T23:24:12.421Z,14.20
2023-05-06T23:26:40.155Z,14.10
2023-05-06T23:29:07.822Z,14.10
2023-05-06T23:31:35.454Z,14.10
2023-05-06T23:34:03.495Z,14.10
2023-05-06T23:36:31.230Z,14.00
2023-05-06T23:38:58.747Z,14.00
2023-05-06T23:41:26.318Z,14.00
2023-05-06T23:43:54.008Z,14.10
2023-05-06T23:46:21.570Z,14.10
2023-05-06T23:48:49.458Z,14.10
2023-05-06T23:51:17.072Z,14.00
2023-05-06T23:53:45.508Z,14.00
2023-05-06T23:56:13.201Z,14.10
2023-05-06T23:58:41.340Z,14.00
